sensor_id;sensor_type;location;lat;lon;timestamp;P1;durP1;ratioP1;P2;durP2;ratioP2
3589;SDS011;1809;48.470;9.226;2023-02-01T00:00:46;4.33;;;2.23;;
3589;SDS011;1809;48.470;9.226;2023-02-01T00:03:12;2.40;;;2.20;;
3589;SDS011;1809;48.470;9.226;2023-02-01T00:05:38;2.40;;;2.03;;
3589;SDS011;1809;48.470;9.226;2023-02-01T00:08:03;1.70;;;1.60;;
3589;SDS011;1809;48.470;9.226;2023-02-01T00:10:28;3.33;;;1.87;;
3589;SDS011;1809;48.470;9.226;2023-02-01T00:12:54;2.57;;;2.37;;
3589;SDS011;1809;48.470;9.226;2023-02-01T00:15:19;2.50;;;2.30;;
3589;SDS011;1809;48.470;9.226;2023-02-01T00:17:45;2.37;;;2.17;;
3589;SDS011;1809;48.470;9.226;2023-02-01T00:20:11;2.70;;;2.47;;
3589;SDS011;1809;48.470;9.226;2023-02-01T00:22:36;2.70;;;2.33;;
3589;SDS011;1809;48.470;9.226;2023-02-01T00:25:01;2.83;;;2.00;;
3589;SDS011;1809;48.470;9.226;2023-02-01T00:27:27;1.53;;;1.43;;
3589;SDS011;1809;48.470;9.226;2023-02-01T00:29:54;1.70;;;1.60;;
3589;SDS011;1809;48.470;9.226;2023-02-01T00:32:20;2.93;;;1.87;;
3589;SDS011;1809;48.470;9.226;2023-02-01T00:34:45;1.70;;;1.60;;
3589;SDS011;1809;48.470;9.226;2023-02-01T00:37:10;5.80;;;2.23;;
3589;SDS011;1809;48.470;9.226;2023-02-01T00:39:36;3.80;;;2.27;;
3589;SDS011;1809;48.470;9.226;2023-02-01T00:42:01;2.00;;;1.50;;
3589;SDS011;1809;48.470;9.226;2023-02-01T00:44:27;3.77;;;1.90;;
3589;SDS011;1809;48.470;9.226;2023-02-01T00:46:52;1.63;;;1.50;;
3589;SDS011;1809;48.470;9.226;2023-02-01T00:49:17;1.70;;;1.60;;
3589;SDS011;1809;48.470;9.226;2023-02-01T00:51:43;1.83;;;1.73;;
3589;SDS011;1809;48.470;9.226;2023-02-01T00:54:09;1.80;;;1.70;;
3589;SDS011;1809;48.470;9.226;2023-02-01T00:56:34;1.70;;;1.60;;
3589;SDS011;1809;48.470;9.226;2023-02-01T00:59:00;1.77;;;1.50;;
3589;SDS011;1809;48.470;9.226;2023-02-01T01:01:26;1.17;;;1.13;;
3589;SDS011;1809;48.470;9.226;2023-02-01T01:03:53;1.53;;;1.43;;
3589;SDS011;1809;48.470;9.226;2023-02-01T01:06:25;2.87;;;1.80;;
3589;SDS011;1809;48.470;9.226;2023-02-01T01:08:52;2.53;;;1.60;;
3589;SDS011;1809;48.470;9.226;2023-02-01T01:11:21;1.80;;;1.70;;
3589;SDS011;1809;48.470;9.226;2023-02-01T01:13:49;1.43;;;1.33;;
3589;SDS011;1809;48.470;9.226;2023-02-01T01:16:15;1.23;;;1.13;;
3589;SDS011;1809;48.470;9.226;2023-02-01T01:18:42;3.07;;;1.13;;
3589;SDS011;1809;48.470;9.226;2023-02-01T01:21:08;1.37;;;1.30;;
3589;SDS011;1809;48.470;9.226;2023-02-01T01:23:36;1.93;;;1.67;;
3589;SDS011;1809;48.470;9.226;2023-02-01T01:26:09;1.80;;;1.70;;
3589;SDS011;1809;48.470;9.226;2023-02-01T01:28:38;1.23;;;1.20;;
3589;SDS011;1809;48.470;9.226;2023-02-01T01:31:05;1.40;;;1.30;;
3589;SDS011;1809;48.470;9.226;2023-02-01T01:33:33;1.30;;;1.20;;
3589;SDS011;1809;48.470;9.226;2023-02-01T01:35:59;2.33;;;1.73;;
3589;SDS011;1809;48.470;9.226;2023-02-01T01:38:25;2.33;;;1.40;;
3589;SDS011;1809;48.470;9.226;2023-02-01T01:40:50;1.10;;;1.10;;
3589;SDS011;1809;48.470;9.226;2023-02-01T01:43:18;1.07;;;1.03;;
3589;SDS011;1809;48.470;9.226;2023-02-01T01:45:47;1.17;;;1.17;;
3589;SDS011;1809;48.470;9.226;2023-02-01T01:48:24;1.20;;;1.10;;
3589;SDS011;1809;48.470;9.226;2023-02-01T01:50:57;1.10;;;1.10;;
3589;SDS011;1809;48.470;9.226;2023-02-01T01:53:30;1.43;;;1.23;;
3589;SDS011;1809;48.470;9.226;2023-02-01T01:56:01;1.23;;;1.23;;
3589;SDS011;1809;48.470;9.226;2023-02-01T01:58:27;1.60;;;1.50;;
3589;SDS011;1809;48.470;9.226;2023-02-01T02:00:57;2.30;;;1.60;;
3589;SDS011;1809;48.470;9.226;2023-02-01T02:03:55;1.10;;;1.10;;
3589;SDS011;1809;48.470;9.226;2023-02-01T02:09:02;1.20;;;1.20;;
3589;SDS011;1809;48.470;9.226;2023-02-01T02:11:28;1.50;;;1.40;;
3589;SDS011;1809;48.470;9.226;2023-02-01T02:13:54;1.17;;;1.13;;
3589;SDS011;1809;48.470;9.226;2023-02-01T02:35:48;1.23;;;1.10;;
3589;SDS011;1809;48.470;9.226;2023-02-01T02:38:30;1.70;;;1.60;;
3589;SDS011;1809;48.470;9.226;2023-02-01T02:41:27;2.20;;;1.60;;
3589;SDS011;1809;48.470;9.226;2023-02-01T02:47:27;2.73;;;1.60;;
3589;SDS011;1809;48.470;9.226;2023-02-01T02:50:11;2.07;;;1.67;;
3589;SDS011;1809;48.470;9.226;2023-02-01T02:53:02;1.50;;;1.40;;
3589;SDS011;1809;48.470;9.226;2023-02-01T02:55:53;1.13;;;1.03;;
3589;SDS011;1809;48.470;9.226;2023-02-01T02:58:38;1.53;;;1.43;;
3589;SDS011;1809;48.470;9.226;2023-02-01T03:01:22;1.17;;;1.17;;
3589;SDS011;1809;48.470;9.226;2023-02-01T03:04:06;3.03;;;1.00;;
3589;SDS011;1809;48.470;9.226;2023-02-01T03:06:34;1.00;;;1.00;;
3589;SDS011;1809;48.470;9.226;2023-02-01T03:09:00;1.37;;;1.27;;
3589;SDS011;1809;48.470;9.226;2023-02-01T03:11:28;1.03;;;1.00;;
3589;SDS011;1809;48.470;9.226;2023-02-01T03:14:15;4.53;;;1.37;;
3589;SDS011;1809;48.470;9.226;2023-02-01T03:16:45;1.53;;;1.43;;
3589;SDS011;1809;48.470;9.226;2023-02-01T03:19:21;1.20;;;1.20;;
3589;SDS011;1809;48.470;9.226;2023-02-01T03:21:51;1.30;;;1.20;;
3589;SDS011;1809;48.470;9.226;2023-02-01T03:24:30;1.10;;;1.10;;
3589;SDS011;1809;48.470;9.226;2023-02-01T03:29:37;1.17;;;1.07;;
3589;SDS011;1809;48.470;9.226;2023-02-01T03:32:10;1.33;;;1.23;;
3589;SDS011;1809;48.470;9.226;2023-02-01T03:34:36;1.30;;;1.20;;
3589;SDS011;1809;48.470;9.226;2023-02-01T03:37:03;1.37;;;1.30;;
3589;SDS011;1809;48.470;9.226;2023-02-01T03:39:43;1.20;;;1.20;;
3589;SDS011;1809;48.470;9.226;2023-02-01T03:42:24;1.70;;;1.60;;
3589;SDS011;1809;48.470;9.226;2023-02-01T03:48:01;1.10;;;1.10;;
3589;SDS011;1809;48.470;9.226;2023-02-01T03:50:28;1.23;;;1.10;;
3589;SDS011;1809;48.470;9.226;2023-02-01T03:52:59;1.10;;;1.10;;
3589;SDS011;1809;48.470;9.226;2023-02-01T03:55:30;1.27;;;1.20;;
3589;SDS011;1809;48.470;9.226;2023-02-01T03:57:57;1.27;;;1.17;;
3589;SDS011;1809;48.470;9.226;2023-02-01T04:00:27;1.57;;;1.47;;
3589;SDS011;1809;48.470;9.226;2023-02-01T04:02:53;1.40;;;1.30;;
3589;SDS011;1809;48.470;9.226;2023-02-01T04:05:18;2.53;;;1.33;;
3589;SDS011;1809;48.470;9.226;2023-02-01T04:07:45;2.07;;;1.97;;
3589;SDS011;1809;48.470;9.226;2023-02-01T04:10:10;1.30;;;1.30;;
3589;SDS011;1809;48.470;9.226;2023-02-01T04:12:36;1.30;;;1.20;;
3589;SDS011;1809;48.470;9.226;2023-02-01T04:15:02;1.30;;;1.20;;
3589;SDS011;1809;48.470;9.226;2023-02-01T04:17:28;1.67;;;1.50;;
3589;SDS011;1809;48.470;9.226;2023-02-01T04:19:53;1.43;;;1.33;;
3589;SDS011;1809;48.470;9.226;2023-02-01T04:22:19;1.40;;;1.30;;
3589;SDS011;1809;48.470;9.226;2023-02-01T04:24:44;1.47;;;1.37;;
3589;SDS011;1809;48.470;9.226;2023-02-01T04:27:09;3.47;;;1.77;;
3589;SDS011;1809;48.470;9.226;2023-02-01T04:29:35;2.10;;;1.20;;
3589;SDS011;1809;48.470;9.226;2023-02-01T04:32:00;1.60;;;1.50;;
3589;SDS011;1809;48.470;9.226;2023-02-01T04:34:26;2.40;;;1.40;;
3589;SDS011;1809;48.470;9.226;2023-02-01T04:36:51;1.40;;;1.30;;
3589;SDS011;1809;48.470;9.226;2023-02-01T04:39:17;1.33;;;1.23;;
3589;SDS011;1809;48.470;9.226;2023-02-01T04:41:42;1.80;;;1.70;;
3589;SDS011;1809;48.470;9.226;2023-02-01T04:44:15;3.67;;;0.97;;
3589;SDS011;1809;48.470;9.226;2023-02-01T04:46:41;1.00;;;1.00;;
3589;SDS011;1809;48.470;9.226;2023-02-01T04:49:08;1.00;;;1.00;;
3589;SDS011;1809;48.470;9.226;2023-02-01T04:51:34;0.93;;;0.93;;
3589;SDS011;1809;48.470;9.226;2023-02-01T04:53:59;1.23;;;1.13;;
3589;SDS011;1809;48.470;9.226;2023-02-01T04:56:25;1.30;;;1.20;;
3589;SDS011;1809;48.470;9.226;2023-02-01T04:58:50;1.50;;;1.40;;
3589;SDS011;1809;48.470;9.226;2023-02-01T05:01:15;1.00;;;1.00;;
3589;SDS011;1809;48.470;9.226;2023-02-01T05:03:41;2.33;;;1.10;;
3589;SDS011;1809;48.470;9.226;2023-02-01T05:06:06;1.40;;;1.23;;
3589;SDS011;1809;48.470;9.226;2023-02-01T05:08:32;1.37;;;1.33;;
3589;SDS011;1809;48.470;9.226;2023-02-01T05:10:57;1.13;;;1.10;;
3589;SDS011;1809;48.470;9.226;2023-02-01T05:13:24;0.93;;;0.93;;
3589;SDS011;1809;48.470;9.226;2023-02-01T05:16:08;1.30;;;1.30;;
3589;SDS011;1809;48.470;9.226;2023-02-01T05:18:33;0.90;;;0.90;;
3589;SDS011;1809;48.470;9.226;2023-02-01T05:20:58;1.63;;;0.90;;
3589;SDS011;1809;48.470;9.226;2023-02-01T05:23:24;1.50;;;1.40;;
3589;SDS011;1809;48.470;9.226;2023-02-01T05:25:49;1.13;;;1.10;;
3589;SDS011;1809;48.470;9.226;2023-02-01T05:28:14;0.97;;;0.97;;
3589;SDS011;1809;48.470;9.226;2023-02-01T05:30:40;1.60;;;1.47;;
3589;SDS011;1809;48.470;9.226;2023-02-01T05:33:05;0.90;;;0.80;;
3589;SDS011;1809;48.470;9.226;2023-02-01T05:35:30;0.97;;;0.97;;
3589;SDS011;1809;48.470;9.226;2023-02-01T05:37:56;1.30;;;1.17;;
3589;SDS011;1809;48.470;9.226;2023-02-01T05:40:21;2.50;;;1.07;;
3589;SDS011;1809;48.470;9.226;2023-02-01T05:42:46;2.53;;;0.97;;
3589;SDS011;1809;48.470;9.226;2023-02-01T05:45:12;2.20;;;1.10;;
3589;SDS011;1809;48.470;9.226;2023-02-01T05:47:38;1.50;;;1.07;;
3589;SDS011;1809;48.470;9.226;2023-02-01T05:50:03;0.70;;;0.70;;
3589;SDS011;1809;48.470;9.226;2023-02-01T05:52:30;1.00;;;1.00;;
3589;SDS011;1809;48.470;9.226;2023-02-01T05:54:55;2.37;;;1.20;;
3589;SDS011;1809;48.470;9.226;2023-02-01T05:57:20;2.40;;;1.90;;
3589;SDS011;1809;48.470;9.226;2023-02-01T05:59:46;5.47;;;0.97;;
3589;SDS011;1809;48.470;9.226;2023-02-01T06:02:12;1.67;;;1.13;;
3589;SDS011;1809;48.470;9.226;2023-02-01T06:04:37;1.23;;;1.13;;
3589;SDS011;1809;48.470;9.226;2023-02-01T06:07:04;1.30;;;1.30;;
3589;SDS011;1809;48.470;9.226;2023-02-01T06:09:30;1.10;;;1.10;;
3589;SDS011;1809;48.470;9.226;2023-02-01T06:11:55;1.20;;;1.10;;
3589;SDS011;1809;48.470;9.226;2023-02-01T06:14:21;1.83;;;1.50;;
3589;SDS011;1809;48.470;9.226;2023-02-01T06:16:46;2.90;;;2.00;;
3589;SDS011;1809;48.470;9.226;2023-02-01T06:19:12;2.40;;;1.00;;
3589;SDS011;1809;48.470;9.226;2023-02-01T06:21:37;1.40;;;1.30;;
3589;SDS011;1809;48.470;9.226;2023-02-01T06:24:03;1.27;;;1.00;;
3589;SDS011;1809;48.470;9.226;2023-02-01T06:26:29;3.43;;;2.87;;
3589;SDS011;1809;48.470;9.226;2023-02-01T06:28:54;1.23;;;1.17;;
3589;SDS011;1809;48.470;9.226;2023-02-01T06:31:20;0.80;;;0.80;;
3589;SDS011;1809;48.470;9.226;2023-02-01T06:33:46;1.20;;;1.10;;
3589;SDS011;1809;48.470;9.226;2023-02-01T06:36:12;1.00;;;1.00;;
3589;SDS011;1809;48.470;9.226;2023-02-01T06:38:38;1.50;;;1.40;;
3589;SDS011;1809;48.470;9.226;2023-02-01T06:41:04;1.23;;;1.00;;
3589;SDS011;1809;48.470;9.226;2023-02-01T06:43:30;1.20;;;1.13;;
3589;SDS011;1809;48.470;9.226;2023-02-01T06:46:07;2.40;;;1.27;;
3589;SDS011;1809;48.470;9.226;2023-02-01T06:48:36;2.00;;;1.00;;
3589;SDS011;1809;48.470;9.226;2023-02-01T06:51:01;1.40;;;1.30;;
3589;SDS011;1809;48.470;9.226;2023-02-01T06:53:26;1.50;;;1.40;;
3589;SDS011;1809;48.470;9.226;2023-02-01T06:55:56;1.40;;;1.30;;
3589;SDS011;1809;48.470;9.226;2023-02-01T06:58:23;1.77;;;0.90;;
3589;SDS011;1809;48.470;9.226;2023-02-01T07:00:49;1.23;;;1.00;;
3589;SDS011;1809;48.470;9.226;2023-02-01T07:03:15;1.50;;;1.40;;
3589;SDS011;1809;48.470;9.226;2023-02-01T07:05:40;2.90;;;1.20;;
3589;SDS011;1809;48.470;9.226;2023-02-01T07:08:06;1.70;;;1.40;;
3589;SDS011;1809;48.470;9.226;2023-02-01T07:10:32;2.37;;;1.60;;
3589;SDS011;1809;48.470;9.226;2023-02-01T07:12:59;2.40;;;1.87;;
3589;SDS011;1809;48.470;9.226;2023-02-01T07:15:24;1.93;;;1.57;;
3589;SDS011;1809;48.470;9.226;2023-02-01T07:17:50;1.43;;;1.43;;
3589;SDS011;1809;48.470;9.226;2023-02-01T07:20:15;1.80;;;1.70;;
3589;SDS011;1809;48.470;9.226;2023-02-01T07:22:41;1.40;;;1.40;;
3589;SDS011;1809;48.470;9.226;2023-02-01T07:25:07;2.20;;;2.10;;
3589;SDS011;1809;48.470;9.226;2023-02-01T07:27:33;2.00;;;1.90;;
3589;SDS011;1809;48.470;9.226;2023-02-01T07:29:59;3.03;;;1.47;;
3589;SDS011;1809;48.470;9.226;2023-02-01T07:32:27;1.73;;;1.63;;
3589;SDS011;1809;48.470;9.226;2023-02-01T07:34:52;2.50;;;1.40;;
3589;SDS011;1809;48.470;9.226;2023-02-01T07:37:18;2.10;;;2.00;;
3589;SDS011;1809;48.470;9.226;2023-02-01T07:39:43;1.93;;;1.83;;
3589;SDS011;1809;48.470;9.226;2023-02-01T07:42:08;1.33;;;1.33;;
3589;SDS011;1809;48.470;9.226;2023-02-01T07:44:34;2.80;;;2.60;;
3589;SDS011;1809;48.470;9.226;2023-02-01T07:46:59;2.03;;;1.80;;
3589;SDS011;1809;48.470;9.226;2023-02-01T07:49:24;2.63;;;2.07;;
3589;SDS011;1809;48.470;9.226;2023-02-01T07:51:50;1.60;;;1.50;;
3589;SDS011;1809;48.470;9.226;2023-02-01T07:54:15;2.53;;;2.40;;
3589;SDS011;1809;48.470;9.226;2023-02-01T07:56:41;1.43;;;1.33;;
3589;SDS011;1809;48.470;9.226;2023-02-01T07:59:06;2.50;;;2.40;;
3589;SDS011;1809;48.470;9.226;2023-02-01T08:01:32;2.13;;;1.87;;
3589;SDS011;1809;48.470;9.226;2023-02-01T08:03:58;5.60;;;1.80;;
3589;SDS011;1809;48.470;9.226;2023-02-01T08:06:26;1.77;;;1.67;;
3589;SDS011;1809;48.470;9.226;2023-02-01T08:08:53;5.03;;;2.63;;
3589;SDS011;1809;48.470;9.226;2023-02-01T08:11:20;1.43;;;1.33;;
3589;SDS011;1809;48.470;9.226;2023-02-01T08:13:46;2.10;;;1.70;;
3589;SDS011;1809;48.470;9.226;2023-02-01T08:16:12;2.30;;;1.30;;
3589;SDS011;1809;48.470;9.226;2023-02-01T08:18:40;1.60;;;1.50;;
3589;SDS011;1809;48.470;9.226;2023-02-01T08:21:10;1.87;;;1.77;;
3589;SDS011;1809;48.470;9.226;2023-02-01T08:23:41;1.13;;;1.13;;
3589;SDS011;1809;48.470;9.226;2023-02-01T08:26:08;1.83;;;1.73;;
3589;SDS011;1809;48.470;9.226;2023-02-01T08:28:34;1.73;;;1.63;;
3589;SDS011;1809;48.470;9.226;2023-02-01T08:31:03;1.40;;;1.30;;
3589;SDS011;1809;48.470;9.226;2023-02-01T08:33:33;1.90;;;1.60;;
3589;SDS011;1809;48.470;9.226;2023-02-01T08:36:06;2.00;;;1.90;;
3589;SDS011;1809;48.470;9.226;2023-02-01T08:38:34;1.73;;;1.50;;
3589;SDS011;1809;48.470;9.226;2023-02-01T08:41:04;1.53;;;1.43;;
3589;SDS011;1809;48.470;9.226;2023-02-01T08:43:31;2.33;;;1.30;;
3589;SDS011;1809;48.470;9.226;2023-02-01T08:45:56;1.83;;;1.73;;
3589;SDS011;1809;48.470;9.226;2023-02-01T08:48:21;1.13;;;1.03;;
3589;SDS011;1809;48.470;9.226;2023-02-01T08:50:47;1.50;;;1.40;;
3589;SDS011;1809;48.470;9.226;2023-02-01T08:53:12;4.80;;;1.70;;
3589;SDS011;1809;48.470;9.226;2023-02-01T08:55:39;1.87;;;1.50;;
3589;SDS011;1809;48.470;9.226;2023-02-01T08:58:07;1.70;;;1.60;;
3589;SDS011;1809;48.470;9.226;2023-02-01T09:00:33;1.60;;;1.50;;
3589;SDS011;1809;48.470;9.226;2023-02-01T09:02:58;2.63;;;1.60;;
3589;SDS011;1809;48.470;9.226;2023-02-01T09:05:24;1.87;;;1.60;;
3589;SDS011;1809;48.470;9.226;2023-02-01T09:07:52;1.60;;;1.50;;
3589;SDS011;1809;48.470;9.226;2023-02-01T09:10:18;6.07;;;4.13;;
3589;SDS011;1809;48.470;9.226;2023-02-01T09:12:44;3.03;;;1.40;;
3589;SDS011;1809;48.470;9.226;2023-02-01T09:15:10;2.70;;;1.50;;
3589;SDS011;1809;48.470;9.226;2023-02-01T09:17:35;4.17;;;1.23;;
3589;SDS011;1809;48.470;9.226;2023-02-01T09:20:02;2.40;;;1.37;;
3589;SDS011;1809;48.470;9.226;2023-02-01T09:22:28;1.73;;;1.63;;
3589;SDS011;1809;48.470;9.226;2023-02-01T09:24:54;1.80;;;1.37;;
3589;SDS011;1809;48.470;9.226;2023-02-01T09:27:20;2.60;;;2.00;;
3589;SDS011;1809;48.470;9.226;2023-02-01T09:29:46;7.03;;;2.20;;
3589;SDS011;1809;48.470;9.226;2023-02-01T09:32:17;2.33;;;1.40;;
3589;SDS011;1809;48.470;9.226;2023-02-01T09:34:43;5.23;;;2.93;;
3589;SDS011;1809;48.470;9.226;2023-02-01T09:37:09;5.33;;;1.60;;
3589;SDS011;1809;48.470;9.226;2023-02-01T09:39:34;6.87;;;2.60;;
3589;SDS011;1809;48.470;9.226;2023-02-01T09:45:09;2.93;;;1.50;;
3589;SDS011;1809;48.470;9.226;2023-02-01T09:47:49;6.17;;;2.73;;
3589;SDS011;1809;48.470;9.226;2023-02-01T09:50:20;2.07;;;1.60;;
3589;SDS011;1809;48.470;9.226;2023-02-01T09:55:41;5.07;;;3.00;;
3589;SDS011;1809;48.470;9.226;2023-02-01T10:01:19;7.23;;;2.73;;
3589;SDS011;1809;48.470;9.226;2023-02-01T10:03:50;5.13;;;1.90;;
3589;SDS011;1809;48.470;9.226;2023-02-01T10:06:27;4.50;;;2.73;;
3589;SDS011;1809;48.470;9.226;2023-02-01T10:09:10;2.83;;;1.60;;
3589;SDS011;1809;48.470;9.226;2023-02-01T10:25:55;5.57;;;2.00;;
3589;SDS011;1809;48.470;9.226;2023-02-01T10:28:42;8.43;;;2.00;;
3589;SDS011;1809;48.470;9.226;2023-02-01T10:31:11;4.30;;;2.67;;
3589;SDS011;1809;48.470;9.226;2023-02-01T10:33:43;10.80;;;1.90;;
3589;SDS011;1809;48.470;9.226;2023-02-01T10:36:23;3.90;;;1.73;;
3589;SDS011;1809;48.470;9.226;2023-02-01T10:38:54;3.10;;;1.90;;
3589;SDS011;1809;48.470;9.226;2023-02-01T10:41:22;5.63;;;1.63;;
3589;SDS011;1809;48.470;9.226;2023-02-01T10:43:54;4.80;;;1.67;;
3589;SDS011;1809;48.470;9.226;2023-02-01T10:46:25;6.03;;;2.00;;
3589;SDS011;1809;48.470;9.226;2023-02-01T10:48:55;5.37;;;2.20;;
3589;SDS011;1809;48.470;9.226;2023-02-01T10:51:29;3.33;;;2.33;;
3589;SDS011;1809;48.470;9.226;2023-02-01T10:54:16;8.53;;;2.30;;
3589;SDS011;1809;48.470;9.226;2023-02-01T10:56:47;6.57;;;2.90;;
3589;SDS011;1809;48.470;9.226;2023-02-01T10:59:15;4.50;;;2.40;;
3589;SDS011;1809;48.470;9.226;2023-02-01T11:01:46;12.90;;;3.60;;
3589;SDS011;1809;48.470;9.226;2023-02-01T11:04:17;6.70;;;2.50;;
3589;SDS011;1809;48.470;9.226;2023-02-01T11:06:46;8.60;;;3.87;;
3589;SDS011;1809;48.470;9.226;2023-02-01T11:09:29;4.10;;;3.30;;
3589;SDS011;1809;48.470;9.226;2023-02-01T11:11:57;20.60;;;2.80;;
3589;SDS011;1809;48.470;9.226;2023-02-01T11:16:51;7.67;;;2.53;;
3589;SDS011;1809;48.470;9.226;2023-02-01T11:19:22;4.20;;;2.93;;
3589;SDS011;1809;48.470;9.226;2023-02-01T11:21:51;8.47;;;2.73;;
3589;SDS011;1809;48.470;9.226;2023-02-01T11:24:21;5.20;;;2.70;;
3589;SDS011;1809;48.470;9.226;2023-02-01T11:26:57;6.80;;;3.10;;
3589;SDS011;1809;48.470;9.226;2023-02-01T11:29:24;5.27;;;2.50;;
3589;SDS011;1809;48.470;9.226;2023-02-01T11:31:58;7.00;;;3.20;;
3589;SDS011;1809;48.470;9.226;2023-02-01T11:34:36;7.43;;;2.27;;
3589;SDS011;1809;48.470;9.226;2023-02-01T11:37:05;2.73;;;2.53;;
3589;SDS011;1809;48.470;9.226;2023-02-01T11:39:44;10.80;;;2.83;;
3589;SDS011;1809;48.470;9.226;2023-02-01T11:42:19;4.27;;;2.33;;
3589;SDS011;1809;48.470;9.226;2023-02-01T11:44:46;5.03;;;2.20;;
3589;SDS011;1809;48.470;9.226;2023-02-01T11:47:26;6.10;;;3.30;;
3589;SDS011;1809;48.470;9.226;2023-02-01T11:49:57;4.23;;;3.73;;
3589;SDS011;1809;48.470;9.226;2023-02-01T11:58:12;7.73;;;2.07;;
3589;SDS011;1809;48.470;9.226;2023-02-01T12:06:56;1.83;;;1.67;;
3589;SDS011;1809;48.470;9.226;2023-02-01T12:09:45;7.03;;;2.60;;
3589;SDS011;1809;48.470;9.226;2023-02-01T12:17:40;8.63;;;1.83;;
3589;SDS011;1809;48.470;9.226;2023-02-01T12:34:00;5.70;;;1.97;;
3589;SDS011;1809;48.470;9.226;2023-02-01T12:39:32;3.40;;;2.13;;
3589;SDS011;1809;48.470;9.226;2023-02-01T12:49:58;8.27;;;2.30;;
3589;SDS011;1809;48.470;9.226;2023-02-01T12:52:32;2.60;;;2.10;;
3589;SDS011;1809;48.470;9.226;2023-02-01T12:55:46;6.40;;;2.40;;
3589;SDS011;1809;48.470;9.226;2023-02-01T12:58:13;9.03;;;2.53;;
3589;SDS011;1809;48.470;9.226;2023-02-01T13:01:03;5.97;;;2.40;;
3589;SDS011;1809;48.470;9.226;2023-02-01T13:03:34;6.73;;;2.43;;
3589;SDS011;1809;48.470;9.226;2023-02-01T13:06:16;6.63;;;2.30;;
3589;SDS011;1809;48.470;9.226;2023-02-01T13:08:48;7.40;;;1.63;;
3589;SDS011;1809;48.470;9.226;2023-02-01T13:11:26;7.20;;;2.00;;
3589;SDS011;1809;48.470;9.226;2023-02-01T13:18:56;10.60;;;1.90;;
3589;SDS011;1809;48.470;9.226;2023-02-01T13:21:30;6.23;;;3.00;;
3589;SDS011;1809;48.470;9.226;2023-02-01T13:24:00;10.07;;;3.17;;
3589;SDS011;1809;48.470;9.226;2023-02-01T13:26:25;12.73;;;4.73;;
3589;SDS011;1809;48.470;9.226;2023-02-01T13:28:58;3.60;;;3.17;;
3589;SDS011;1809;48.470;9.226;2023-02-01T13:31:42;5.60;;;1.53;;
3589;SDS011;1809;48.470;9.226;2023-02-01T13:43:13;4.30;;;2.17;;
3589;SDS011;1809;48.470;9.226;2023-02-01T13:45:45;7.33;;;2.87;;
3589;SDS011;1809;48.470;9.226;2023-02-01T13:48:23;5.10;;;1.90;;
3589;SDS011;1809;48.470;9.226;2023-02-01T13:50:55;11.20;;;2.50;;
3589;SDS011;1809;48.470;9.226;2023-02-01T13:53:29;3.87;;;2.20;;
3589;SDS011;1809;48.470;9.226;2023-02-01T13:58:43;3.07;;;2.53;;
3589;SDS011;1809;48.470;9.226;2023-02-01T14:11:36;5.80;;;1.90;;
3589;SDS011;1809;48.470;9.226;2023-02-01T14:16:40;6.00;;;1.73;;
3589;SDS011;1809;48.470;9.226;2023-02-01T14:19:18;5.10;;;1.80;;
3589;SDS011;1809;48.470;9.226;2023-02-01T14:21:48;4.17;;;2.33;;
3589;SDS011;1809;48.470;9.226;2023-02-01T14:24:25;2.17;;;1.97;;
3589;SDS011;1809;48.470;9.226;2023-02-01T14:26:55;4.63;;;1.70;;
3589;SDS011;1809;48.470;9.226;2023-02-01T14:29:50;6.43;;;2.83;;
3589;SDS011;1809;48.470;9.226;2023-02-01T14:32:23;8.63;;;2.80;;
3589;SDS011;1809;48.470;9.226;2023-02-01T14:34:52;6.53;;;2.10;;
3589;SDS011;1809;48.470;9.226;2023-02-01T14:39:50;13.07;;;2.83;;
3589;SDS011;1809;48.470;9.226;2023-02-01T14:44:48;4.03;;;2.40;;
3589;SDS011;1809;48.470;9.226;2023-02-01T14:52:46;6.40;;;2.30;;
3589;SDS011;1809;48.470;9.226;2023-02-01T14:55:23;4.40;;;3.43;;
3589;SDS011;1809;48.470;9.226;2023-02-01T14:57:55;6.23;;;2.33;;
3589;SDS011;1809;48.470;9.226;2023-02-01T15:00:28;7.37;;;2.70;;
3589;SDS011;1809;48.470;9.226;2023-02-01T15:03:01;9.07;;;4.50;;
3589;SDS011;1809;48.470;9.226;2023-02-01T15:05:52;4.27;;;3.20;;
3589;SDS011;1809;48.470;9.226;2023-02-01T15:08:24;8.57;;;3.00;;
3589;SDS011;1809;48.470;9.226;2023-02-01T15:10:53;6.20;;;3.47;;
3589;SDS011;1809;48.470;9.226;2023-02-01T15:13:24;11.97;;;2.17;;
3589;SDS011;1809;48.470;9.226;2023-02-01T15:16:04;9.67;;;2.90;;
3589;SDS011;1809;48.470;9.226;2023-02-01T15:18:38;12.90;;;3.20;;
3589;SDS011;1809;48.470;9.226;2023-02-01T15:21:04;23.27;;;6.07;;
3589;SDS011;1809;48.470;9.226;2023-02-01T15:23:31;17.13;;;6.47;;
3589;SDS011;1809;48.470;9.226;2023-02-01T15:25:57;10.43;;;4.37;;
3589;SDS011;1809;48.470;9.226;2023-02-01T15:28:24;7.73;;;3.50;;
3589;SDS011;1809;48.470;9.226;2023-02-01T15:33:20;13.03;;;5.50;;
3589;SDS011;1809;48.470;9.226;2023-02-01T15:35:47;23.13;;;9.00;;
3589;SDS011;1809;48.470;9.226;2023-02-01T15:43:22;11.93;;;4.17;;
3589;SDS011;1809;48.470;9.226;2023-02-01T15:45:49;22.77;;;5.70;;
3589;SDS011;1809;48.470;9.226;2023-02-01T15:48:20;5.70;;;2.77;;
3589;SDS011;1809;48.470;9.226;2023-02-01T15:50:48;6.40;;;2.17;;
3589;SDS011;1809;48.470;9.226;2023-02-01T15:53:16;7.10;;;3.77;;
3589;SDS011;1809;48.470;9.226;2023-02-01T15:55:46;11.43;;;5.80;;
3589;SDS011;1809;48.470;9.226;2023-02-01T15:58:17;4.87;;;2.67;;
3589;SDS011;1809;48.470;9.226;2023-02-01T16:00:49;5.30;;;3.20;;
3589;SDS011;1809;48.470;9.226;2023-02-01T16:05:58;8.23;;;2.87;;
3589;SDS011;1809;48.470;9.226;2023-02-01T16:08:26;10.20;;;2.87;;
3589;SDS011;1809;48.470;9.226;2023-02-01T16:11:01;3.60;;;2.13;;
3589;SDS011;1809;48.470;9.226;2023-02-01T16:13:33;6.70;;;2.50;;
3589;SDS011;1809;48.470;9.226;2023-02-01T16:15:58;7.00;;;2.80;;
3589;SDS011;1809;48.470;9.226;2023-02-01T16:18:23;4.73;;;2.80;;
3589;SDS011;1809;48.470;9.226;2023-02-01T16:20:48;3.83;;;2.20;;
3589;SDS011;1809;48.470;9.226;2023-02-01T16:23:14;7.07;;;2.10;;
3589;SDS011;1809;48.470;9.226;2023-02-01T16:25:39;6.57;;;2.37;;
3589;SDS011;1809;48.470;9.226;2023-02-01T16:28:05;7.20;;;2.53;;
3589;SDS011;1809;48.470;9.226;2023-02-01T16:30:31;5.07;;;2.73;;
3589;SDS011;1809;48.470;9.226;2023-02-01T16:32:57;6.43;;;2.23;;
3589;SDS011;1809;48.470;9.226;2023-02-01T16:35:25;10.30;;;2.93;;
3589;SDS011;1809;48.470;9.226;2023-02-01T16:37:52;11.17;;;3.70;;
3589;SDS011;1809;48.470;9.226;2023-02-01T16:40:18;5.90;;;2.60;;
3589;SDS011;1809;48.470;9.226;2023-02-01T16:42:46;6.30;;;3.47;;
3589;SDS011;1809;48.470;9.226;2023-02-01T16:45:15;5.20;;;2.53;;
3589;SDS011;1809;48.470;9.226;2023-02-01T16:47:41;7.67;;;3.20;;
3589;SDS011;1809;48.470;9.226;2023-02-01T16:50:16;13.13;;;3.53;;
3589;SDS011;1809;48.470;9.226;2023-02-01T16:52:43;7.70;;;2.80;;
3589;SDS011;1809;48.470;9.226;2023-02-01T16:55:15;8.93;;;3.97;;
3589;SDS011;1809;48.470;9.226;2023-02-01T16:57:42;7.00;;;2.90;;
3589;SDS011;1809;48.470;9.226;2023-02-01T17:00:11;7.20;;;3.00;;
3589;SDS011;1809;48.470;9.226;2023-02-01T17:02:38;15.73;;;3.60;;
3589;SDS011;1809;48.470;9.226;2023-02-01T17:05:04;14.80;;;4.43;;
3589;SDS011;1809;48.470;9.226;2023-02-01T17:07:30;12.53;;;3.13;;
3589;SDS011;1809;48.470;9.226;2023-02-01T17:09:56;8.50;;;3.43;;
3589;SDS011;1809;48.470;9.226;2023-02-01T17:12:22;4.93;;;3.10;;
3589;SDS011;1809;48.470;9.226;2023-02-01T17:14:52;12.83;;;3.43;;
3589;SDS011;1809;48.470;9.226;2023-02-01T17:17:18;7.73;;;2.30;;
3589;SDS011;1809;48.470;9.226;2023-02-01T17:19:46;6.60;;;3.67;;
3589;SDS011;1809;48.470;9.226;2023-02-01T17:22:16;10.17;;;3.10;;
3589;SDS011;1809;48.470;9.226;2023-02-01T17:24:42;3.90;;;3.50;;
3589;SDS011;1809;48.470;9.226;2023-02-01T17:27:08;14.60;;;3.53;;
3589;SDS011;1809;48.470;9.226;2023-02-01T17:29:33;10.20;;;3.67;;
3589;SDS011;1809;48.470;9.226;2023-02-01T17:31:59;11.17;;;4.07;;
3589;SDS011;1809;48.470;9.226;2023-02-01T17:34:24;5.07;;;3.27;;
3589;SDS011;1809;48.470;9.226;2023-02-01T17:36:50;8.13;;;2.90;;
3589;SDS011;1809;48.470;9.226;2023-02-01T17:39:15;3.80;;;2.80;;
3589;SDS011;1809;48.470;9.226;2023-02-01T17:42:00;13.00;;;3.10;;
3589;SDS011;1809;48.470;9.226;2023-02-01T17:44:26;12.10;;;2.73;;
3589;SDS011;1809;48.470;9.226;2023-02-01T17:46:51;10.83;;;3.47;;
3589;SDS011;1809;48.470;9.226;2023-02-01T17:49:17;9.47;;;4.00;;
3589;SDS011;1809;48.470;9.226;2023-02-01T17:51:42;10.83;;;3.30;;
3589;SDS011;1809;48.470;9.226;2023-02-01T17:54:09;11.00;;;5.10;;
3589;SDS011;1809;48.470;9.226;2023-02-01T17:56:36;13.57;;;4.37;;